Time;durP1;ratioP1;P1;durP2;ratioP2;P2;SDS_P1;SDS_P2;PMS_P1;PMS_P2;Temp;Humidity;BMP_temperature;BMP_pressure;BME280_temperature;BME280_humidity;BME280_pressure;Samples;Min_cycle;Max_cycle;Signal;HPM_P1;HPM_P2
2021/09/20 00:02:06;;;;;;;3.95;3.65;;;18.30;66.30;;;;;;5048374;28;20037;-84
2021/09/20 00:04:32;;;;;;;3.50;3.33;;;18.30;66.30;;;;;;5048858;28;20383;-84
2021/09/20 00:06:58;;;;;;;3.78;3.53;;;18.20;66.30;;;;;;5054295;28;20040;-84
2021/09/20 00:09:24;;;;;;;3.53;3.40;;;18.20;66.40;;;;;;5054572;28;20025;-84
2021/09/20 00:11:50;;;;;;;3.58;3.38;;;18.20;66.50;;;;;;5055208;28;20040;-84
2021/09/20 00:14:16;;;;;;;3.33;3.22;;;18.20;66.50;;;;;;5055083;28;20033;-84
2021/09/20 00:16:42;;;;;;;3.20;3.10;;;18.10;66.50;;;;;;5052527;28;20033;-84
2021/09/20 00:19:09;;;;;;;3.65;3.45;;;18.10;66.60;;;;;;5052976;28;20498;-84
2021/09/20 00:21:35;;;;;;;3.60;3.38;;;18.10;66.70;;;;;;5054085;28;20040;-84
2021/09/20 00:24:01;;;;;;;3.22;3.13;;;18.00;66.70;;;;;;5054136;28;20036;-84
2021/09/20 00:26:27;;;;;;;3.20;3.10;;;18.00;66.90;;;;;;5056012;28;20033;-84
2021/09/20 00:28:53;;;;;;;3.45;3.25;;;17.90;66.90;;;;;;5053694;28;20021;-84
2021/09/20 00:31:19;;;;;;;3.00;2.90;;;17.90;66.90;;;;;;5053478;28;20500;-83
2021/09/20 00:33:45;;;;;;;3.42;3.22;;;17.90;66.90;;;;;;5051085;28;20049;-84
2021/09/20 00:36:11;;;;;;;3.50;3.30;;;17.90;67.00;;;;;;5053983;28;20534;-84
2021/09/20 00:38:37;;;;;;;3.00;2.90;;;17.90;67.00;;;;;;5055751;28;20025;-83
2021/09/20 00:41:03;;;;;;;2.92;2.83;;;17.80;67.00;;;;;;5054150;28;20423;-84
2021/09/20 00:43:29;;;;;;;3.33;3.10;;;17.80;67.10;;;;;;5051972;28;20510;-83
2021/09/20 00:45:55;;;;;;;3.08;2.97;;;17.80;67.10;;;;;;5053129;27;20033;-84
2021/09/20 00:48:22;;;;;;;3.10;3.00;;;17.80;67.10;;;;;;5053661;28;20030;-84
2021/09/20 00:50:48;;;;;;;3.28;3.17;;;17.80;67.20;;;;;;5070398;28;20037;-84
2021/09/20 00:53:14;;;;;;;3.00;2.90;;;17.80;67.20;;;;;;5054292;28;20387;-84
2021/09/20 00:55:40;;;;;;;3.58;3.38;;;17.80;67.20;;;;;;5053355;28;20029;-84
2021/09/20 00:58:08;;;;;;;3.58;3.38;;;17.80;67.20;;;;;;5052190;28;20396;-84
2021/09/20 01:00:35;;;;;;;3.05;2.95;;;17.70;67.20;;;;;;5053021;28;20063;-84
2021/09/20 01:03:01;;;;;;;3.20;2.90;;;17.70;67.20;;;;;;5053421;28;20032;-84
2021/09/20 01:05:27;;;;;;;3.20;3.03;;;17.70;67.20;;;;;;5055265;28;20530;-83
2021/09/20 01:07:53;;;;;;;3.10;3.00;;;17.70;67.30;;;;;;5053253;28;20021;-84
2021/09/20 01:10:19;;;;;;;2.95;2.85;;;17.70;67.30;;;;;;5053274;28;20040;-84
2021/09/20 01:12:45;;;;;;;3.33;3.20;;;17.70;67.40;;;;;;5051867;28;20411;-82
2021/09/20 01:15:12;;;;;;;3.20;3.10;;;17.70;68.20;;;;;;5052820;28;20033;-84
2021/09/20 01:17:38;;;;;;;11.57;3.30;;;17.70;67.40;;;;;;5054923;28;20032;-84
2021/09/20 01:20:05;;;;;;;3.25;3.15;;;17.70;67.40;;;;;;5051811;28;20036;-84
2021/09/20 01:22:31;;;;;;;3.10;3.00;;;17.70;67.50;;;;;;5051741;28;20494;-83
2021/09/20 01:24:57;;;;;;;3.15;3.05;;;17.70;67.40;;;;;;5053008;28;20052;-84
2021/09/20 01:27:24;;;;;;;3.05;2.95;;;17.60;67.40;;;;;;5051435;28;20419;-84
2021/09/20 01:29:50;;;;;;;3.10;3.00;;;17.60;67.50;;;;;;5052756;28;20032;-83
2021/09/20 01:32:16;;;;;;;3.05;2.95;;;17.50;67.50;;;;;;5052142;28;20037;-84
2021/09/20 01:34:42;;;;;;;2.92;2.83;;;17.60;67.60;;;;;;5051718;28;20041;-83
2021/09/20 01:37:08;;;;;;;3.10;2.97;;;17.60;67.70;;;;;;5052806;28;20391;-84
2021/09/20 01:39:35;;;;;;;2.75;2.65;;;17.50;67.60;;;;;;5052773;28;20028;-83
2021/09/20 01:42:02;;;;;;;2.85;2.75;;;17.50;67.60;;;;;;5051280;28;20052;-84
2021/09/20 01:44:28;;;;;;;3.33;3.13;;;17.50;67.70;;;;;;5053305;28;20029;-84
2021/09/20 01:46:56;;;;;;;2.70;2.60;;;17.50;67.70;;;;;;5050818;28;20044;-83
2021/09/20 01:49:22;;;;;;;2.95;2.85;;;17.50;67.80;;;;;;5052819;28;20044;-84
2021/09/20 01:51:48;;;;;;;2.53;2.42;;;17.40;67.70;;;;;;5050987;28;20024;-84
2021/09/20 01:54:15;;;;;;;2.70;2.60;;;17.40;67.80;;;;;;5034679;28;20041;-84
2021/09/20 01:56:41;;;;;;;2.78;2.67;;;17.40;67.80;;;;;;5054121;28;20021;-84
2021/09/20 01:59:07;;;;;;;3.60;2.80;;;17.40;67.80;;;;;;5052168;28;20033;-84
2021/09/20 02:01:33;;;;;;;2.65;2.55;;;17.40;67.80;;;;;;5048697;28;20052;-83
2021/09/20 02:03:59;;;;;;;2.78;2.67;;;17.40;67.80;;;;;;5046607;28;20029;-83
2021/09/20 02:06:25;;;;;;;5.22;2.65;;;17.40;67.80;;;;;;5041501;28;20056;-83
2021/09/20 02:08:52;;;;;;;3.15;3.05;;;17.40;67.80;;;;;;5049475;28;20033;-84
2021/09/20 02:11:19;;;;;;;2.90;2.80;;;17.40;67.80;;;;;;5048653;28;20032;-84
2021/09/20 02:13:46;;;;;;;14.00;2.83;;;17.40;67.80;;;;;;5041763;28;20025;-84
2021/09/20 02:16:12;;;;;;;2.70;2.60;;;17.40;67.90;;;;;;5035241;28;20034;-84
2021/09/20 02:18:39;;;;;;;3.33;3.13;;;17.30;67.90;;;;;;5037032;28;20032;-84
2021/09/20 02:21:09;;;;;;;2.83;2.72;;;17.30;68.00;;;;;;5033885;28;20032;-83
2021/09/20 02:23:35;;;;;;;2.70;2.60;;;17.20;68.00;;;;;;5054874;28;20049;-84
2021/09/20 02:26:02;;;;;;;2.75;2.65;;;17.30;68.10;;;;;;5037760;28;20473;-84
2021/09/20 02:28:28;;;;;;;2.90;2.80;;;17.20;68.00;;;;;;5041586;28;20056;-84
2021/09/20 02:30:54;;;;;;;2.75;2.65;;;17.20;68.00;;;;;;5045110;28;20033;-83
2021/09/20 02:33:20;;;;;;;9.68;2.75;;;17.20;68.00;;;;;;5047210;28;20045;-83
2021/09/20 02:35:46;;;;;;;2.70;2.60;;;17.10;67.90;;;;;;5038753;28;20033;-83
2021/09/20 02:38:12;;;;;;;2.50;2.40;;;17.10;68.00;;;;;;5051612;28;20036;-84
2021/09/20 02:40:38;;;;;;;2.70;2.60;;;17.00;68.10;;;;;;5050004;28;20376;-83
2021/09/20 02:43:05;;;;;;;3.42;3.22;;;17.10;68.30;;;;;;5051855;28;20434;-84
2021/09/20 02:45:31;;;;;;;2.70;2.60;;;17.00;68.30;;;;;;5049722;28;20056;-84
2021/09/20 02:47:57;;;;;;;10.52;2.80;;;17.00;68.30;;;;;;5067098;28;20041;-84
2021/09/20 02:50:23;;;;;;;2.60;2.50;;;17.00;68.30;;;;;;5051165;28;20032;-83
2021/09/20 02:52:49;;;;;;;2.60;2.50;;;17.00;68.30;;;;;;5051353;28;20395;-84
2021/09/20 02:55:15;;;;;;;2.70;2.60;;;17.00;68.30;;;;;;5050827;28;20100;-84
2021/09/20 02:57:41;;;;;;;2.60;2.50;;;16.90;68.30;;;;;;5050158;28;20431;-84
2021/09/20 03:00:09;;;;;;;3.10;2.90;;;16.90;68.40;;;;;;5032306;28;20052;-82
2021/09/20 03:02:35;;;;;;;2.70;2.60;;;16.90;68.40;;;;;;5052531;28;20045;-83
2021/09/20 03:05:01;;;;;;;6.10;3.05;;;16.90;68.40;;;;;;5049912;28;20036;-84
2021/09/20 03:07:27;;;;;;;2.53;2.42;;;16.80;68.30;;;;;;5050579;28;20503;-83
2021/09/20 03:09:53;;;;;;;2.60;2.50;;;16.80;68.40;;;;;;5049528;28;20030;-84
2021/09/20 03:12:19;;;;;;;2.50;2.40;;;16.80;68.50;;;;;;5051090;28;20475;-84
2021/09/20 03:14:45;;;;;;;2.60;2.50;;;16.70;68.60;;;;;;5052271;28;20044;-83
2021/09/20 03:17:11;;;;;;;2.50;2.40;;;16.70;68.70;;;;;;5051105;28;20399;-84
2021/09/20 03:19:37;;;;;;;2.83;2.70;;;16.60;68.70;;;;;;5066518;28;20036;-84
2021/09/20 03:22:03;;;;;;;2.78;2.67;;;16.60;68.80;;;;;;5050903;28;20515;-84
2021/09/20 03:24:30;;;;;;;2.50;2.40;;;16.60;68.90;;;;;;5049811;28;20506;-83
2021/09/20 03:26:56;;;;;;;2.50;2.40;;;16.50;68.80;;;;;;5049784;28;20043;-83
2021/09/20 03:29:22;;;;;;;2.45;2.35;;;16.50;68.80;;;;;;5052542;28;20033;-82
2021/09/20 03:31:48;;;;;;;2.50;2.40;;;16.50;68.80;;;;;;5050199;28;20033;-82
2021/09/20 03:34:14;;;;;;;2.50;2.40;;;16.40;68.90;;;;;;5050480;28;20453;-82
2021/09/20 03:36:40;;;;;;;2.60;2.50;;;16.40;68.90;;;;;;5049107;28;20044;-82
2021/09/20 03:39:07;;;;;;;2.33;2.22;;;16.40;69.00;;;;;;5050238;28;20025;-82
2021/09/20 03:41:33;;;;;;;8.73;2.65;;;16.40;69.10;;;;;;5052098;28;20037;-82
2021/09/20 03:43:59;;;;;;;2.40;2.30;;;16.40;69.10;;;;;;5050506;28;20033;-82
2021/09/20 03:46:25;;;;;;;2.30;2.20;;;16.40;69.20;;;;;;5050405;28;20041;-82
2021/09/20 03:48:52;;;;;;;2.40;2.30;;;16.40;69.10;;;;;;5048786;28;20033;-82
2021/09/20 03:51:18;;;;;;;2.45;2.35;;;16.30;69.10;;;;;;5048766;28;20365;-82
2021/09/20 03:53:44;;;;;;;2.45;2.35;;;16.30;69.10;;;;;;5050853;28;20025;-82
2021/09/20 03:56:10;;;;;;;2.50;2.40;;;16.30;69.20;;;;;;5049318;28;20036;-82
2021/09/20 03:58:36;;;;;;;2.40;2.30;;;16.20;69.20;;;;;;5049169;28;20040;-82
2021/09/20 04:01:03;;;;;;;2.55;2.40;;;16.30;69.30;;;;;;5050282;28;20060;-82
2021/09/20 04:03:29;;;;;;;2.72;2.63;;;16.20;69.30;;;;;;5050321;28;20032;-82
2021/09/20 04:05:55;;;;;;;2.40;2.30;;;16.30;69.30;;;;;;5050304;28;20399;-82
2021/09/20 04:08:27;;;;;;;3.75;3.45;;;16.20;69.20;;;;;;5050791;28;20040;-82
2021/09/20 04:10:53;;;;;;;2.45;2.35;;;16.20;69.20;;;;;;5049025;28;20029;-82
2021/09/20 04:13:20;;;;;;;2.58;2.47;;;16.20;69.30;;;;;;5050329;28;20030;-82
2021/09/20 04:15:47;;;;;;;2.90;2.80;;;16.20;69.40;;;;;;5049600;28;20399;-82
2021/09/20 04:18:13;;;;;;;6.05;2.50;;;16.20;69.40;;;;;;5031927;28;20514;-82
2021/09/20 04:20:39;;;;;;;2.42;2.33;;;16.10;69.30;;;;;;5051790;28;20033;-82
2021/09/20 04:23:05;;;;;;;2.35;2.25;;;16.10;69.30;;;;;;5049971;28;20064;-82
2021/09/20 04:25:31;;;;;;;2.40;2.30;;;16.10;69.40;;;;;;5049954;28;20040;-82
2021/09/20 04:27:57;;;;;;;2.60;2.50;;;16.10;69.40;;;;;;5048573;28;20041;-82
2021/09/20 04:30:24;;;;;;;3.20;2.97;;;16.10;69.40;;;;;;5048166;28;20040;-82
2021/09/20 04:32:50;;;;;;;2.55;2.45;;;16.10;69.50;;;;;;5051033;28;20492;-82
2021/09/20 04:35:16;;;;;;;2.78;2.67;;;16.10;69.50;;;;;;5049552;28;20060;-82
2021/09/20 04:37:42;;;;;;;2.50;2.40;;;16.10;69.60;;;;;;5050004;28;20472;-82
2021/09/20 04:40:09;;;;;;;2.60;2.50;;;16.10;69.60;;;;;;5049941;28;20036;-82
2021/09/20 04:42:35;;;;;;;2.70;2.60;;;16.10;69.60;;;;;;5049963;28;20231;-82
2021/09/20 04:45:01;;;;;;;2.53;2.42;;;16.10;69.50;;;;;;5049866;28;20040;-82
2021/09/20 04:47:27;;;;;;;5.35;2.80;;;16.10;69.50;;;;;;5051019;28;20037;-81
2021/09/20 04:49:53;;;;;;;5.88;2.70;;;16.10;69.50;;;;;;5049496;28;20021;-82
2021/09/20 04:52:19;;;;;;;2.50;2.40;;;16.10;69.50;;;;;;5051368;28;20040;-82
2021/09/20 04:54:45;;;;;;;3.70;3.50;;;16.10;69.50;;;;;;5053707;28;20021;-82
2021/09/20 04:57:11;;;;;;;2.40;2.30;;;16.10;69.60;;;;;;5053698;28;20036;-82
2021/09/20 04:59:37;;;;;;;2.80;2.70;;;16.10;69.70;;;;;;5055642;28;20029;-82
2021/09/20 05:02:03;;;;;;;2.65;2.55;;;16.00;69.70;;;;;;5052895;28;20045;-82
2021/09/20 05:04:29;;;;;;;2.60;2.50;;;16.00;69.70;;;;;;5053071;28;20376;-82
2021/09/20 05:06:55;;;;;;;2.83;2.72;;;16.00;69.70;;;;;;5051733;28;20043;-82
2021/09/20 05:09:21;;;;;;;2.60;2.50;;;16.00;69.70;;;;;;5051981;28;20030;-82
2021/09/20 05:11:47;;;;;;;2.83;2.72;;;16.00;69.70;;;;;;5054506;28;20044;-82
2021/09/20 05:14:14;;;;;;;3.85;2.45;;;16.00;69.80;;;;;;5053885;28;20440;-82
2021/09/20 05:16:40;;;;;;;2.90;2.80;;;16.00;69.80;;;;;;5051572;28;20040;-82
2021/09/20 05:19:06;;;;;;;2.47;2.38;;;16.00;69.80;;;;;;5051608;28;20411;-82
2021/09/20 05:21:32;;;;;;;2.60;2.50;;;16.00;69.80;;;;;;5053618;28;20041;-83
2021/09/20 05:23:58;;;;;;;2.80;2.70;;;16.00;69.80;;;;;;5053197;28;20092;-82
2021/09/20 05:26:24;;;;;;;2.75;2.65;;;16.00;69.80;;;;;;5055029;28;20033;-82
2021/09/20 05:28:50;;;;;;;2.70;2.60;;;16.00;69.80;;;;;;5052994;28;20021;-82
2021/09/20 05:31:16;;;;;;;3.35;3.22;;;16.00;69.80;;;;;;5067949;28;20509;-82
2021/09/20 05:33:42;;;;;;;2.67;2.58;;;16.00;69.80;;;;;;5052457;28;20048;-82
2021/09/20 05:36:08;;;;;;;2.60;2.50;;;16.00;69.80;;;;;;5052831;28;20399;-82
2021/09/20 05:38:35;;;;;;;2.78;2.67;;;16.00;69.80;;;;;;5053550;28;20052;-82
2021/09/20 05:41:01;;;;;;;2.78;2.67;;;16.00;69.80;;;;;;5051513;28;20033;-82
2021/09/20 05:43:27;;;;;;;2.90;2.80;;;16.00;69.80;;;;;;5051371;28;20403;-82
2021/09/20 05:45:53;;;;;;;2.67;2.58;;;16.00;69.90;;;;;;5050637;28;20033;-82
2021/09/20 05:48:20;;;;;;;5.80;2.60;;;15.90;69.90;;;;;;5050893;28;20037;-82
2021/09/20 05:50:46;;;;;;;2.70;2.60;;;15.90;69.90;;;;;;5035568;28;20471;-83
2021/09/20 05:53:13;;;;;;;2.70;2.60;;;15.90;70.00;;;;;;5051740;28;20048;-82
2021/09/20 05:55:39;;;;;;;3.00;2.90;;;15.90;70.00;;;;;;5036126;28;20021;-82
2021/09/20 05:58:06;;;;;;;2.83;2.72;;;15.90;70.10;;;;;;5052466;28;20033;-82
2021/09/20 06:00:33;;;;;;;3.00;2.90;;;15.80;70.00;;;;;;5051918;27;20032;-82
2021/09/20 06:02:59;;;;;;;3.00;2.90;;;15.80;70.10;;;;;;5049894;28;20029;-82
2021/09/20 06:05:25;;;;;;;2.70;2.60;;;15.80;70.10;;;;;;5054150;28;20459;-82
2021/09/20 06:07:51;;;;;;;2.85;2.75;;;15.70;70.10;;;;;;5052722;28;20041;-82
2021/09/20 06:10:17;;;;;;;2.78;2.67;;;15.70;70.10;;;;;;5052027;28;20036;-82
2021/09/20 06:12:46;;;;;;;2.90;2.80;;;15.70;70.10;;;;;;5052220;28;20056;-82
2021/09/20 06:15:12;;;;;;;2.97;2.88;;;15.80;70.20;;;;;;5034630;28;20025;-82
2021/09/20 06:17:39;;;;;;;2.78;2.67;;;15.70;70.20;;;;;;5054098;28;20040;-82
2021/09/20 06:20:06;;;;;;;2.75;2.65;;;15.60;70.20;;;;;;5050784;28;20029;-82
2021/09/20 06:22:32;;;;;;;6.45;2.97;;;15.70;70.30;;;;;;5050657;28;20033;-82
2021/09/20 06:24:59;;;;;;;2.70;2.60;;;15.70;70.30;;;;;;5050461;28;20395;-82
2021/09/20 06:27:28;;;;;;;2.70;2.60;;;15.70;70.30;;;;;;5050986;28;20053;-82
2021/09/20 06:29:54;;;;;;;2.88;2.67;;;15.70;70.30;;;;;;5051374;28;20494;-82
2021/09/20 06:32:21;;;;;;;2.83;2.72;;;15.80;70.20;;;;;;5052483;28;20029;-82
2021/09/20 06:34:47;;;;;;;8.85;2.80;;;15.70;70.10;;;;;;5050455;28;20411;-82
2021/09/20 06:37:13;;;;;;;2.80;2.70;;;15.80;70.00;;;;;;5050517;28;20044;-82
2021/09/20 06:39:39;;;;;;;3.35;3.05;;;15.80;69.90;;;;;;5035360;28;20036;-82
2021/09/20 06:42:08;;;;;;;2.85;2.75;;;15.90;69.90;;;;;;5051564;28;20042;-82
2021/09/20 06:44:34;;;;;;;2.92;2.83;;;15.90;69.80;;;;;;5052287;28;20025;-82
2021/09/20 06:47:01;;;;;;;2.97;2.88;;;16.00;69.70;;;;;;5049591;28;20053;-82
2021/09/20 06:49:27;;;;;;;2.80;2.70;;;16.00;69.60;;;;;;5050221;28;20029;-82
2021/09/20 06:51:53;;;;;;;2.80;2.70;;;16.10;69.50;;;;;;5050224;28;20037;-82
2021/09/20 06:54:19;;;;;;;2.67;2.58;;;16.20;69.40;;;;;;5051597;28;20048;-83
2021/09/20 06:56:46;;;;;;;2.80;2.70;;;16.20;69.30;;;;;;5052699;28;20029;-83
2021/09/20 06:59:12;;;;;;;2.80;2.70;;;16.30;69.20;;;;;;5052662;28;20029;-82
2021/09/20 07:01:38;;;;;;;2.50;2.40;;;16.30;69.20;;;;;;5050403;27;20406;-83
2021/09/20 07:04:04;;;;;;;2.65;2.55;;;16.40;69.20;;;;;;5049714;28;20056;-83
2021/09/20 07:06:31;;;;;;;2.72;2.63;;;16.30;69.10;;;;;;5048648;28;20032;-82
2021/09/20 07:08:57;;;;;;;2.80;2.70;;;16.40;69.20;;;;;;5051254;28;20025;-82
2021/09/20 07:11:23;;;;;;;2.75;2.65;;;16.40;69.10;;;;;;5068519;28;20044;-83
2021/09/20 07:13:49;;;;;;;2.70;2.60;;;16.40;69.10;;;;;;5034447;28;20079;-82
2021/09/20 07:16:15;;;;;;;2.60;2.50;;;16.40;69.90;;;;;;5050056;28;20025;-82
2021/09/20 07:18:42;;;;;;;2.60;2.50;;;16.40;69.20;;;;;;5051100;28;20052;-82
2021/09/20 07:21:08;;;;;;;2.95;2.85;;;16.50;69.10;;;;;;5050763;28;20032;-83
2021/09/20 07:23:34;;;;;;;5.10;3.35;;;16.50;69.00;;;;;;5052807;28;20033;-82
2021/09/20 07:26:00;;;;;;;2.88;2.78;;;16.50;68.90;;;;;;5049612;28;20029;-82
2021/09/20 07:28:26;;;;;;;3.25;3.05;;;16.60;68.90;;;;;;5050382;28;20040;-83
2021/09/20 07:30:52;;;;;;;3.03;2.92;;;16.70;68.80;;;;;;5050243;28;20048;-82
2021/09/20 07:33:18;;;;;;;3.55;3.35;;;16.80;68.70;;;;;;5066084;28;20053;-83
2021/09/20 07:35:44;;;;;;;3.78;3.58;;;17.00;68.40;;;;;;5052092;28;20033;-83
2021/09/20 07:38:10;;;;;;;3.90;3.70;;;17.20;68.00;;;;;;5051136;28;20037;-83
2021/09/20 07:40:37;;;;;;;4.20;4.00;;;17.30;67.80;;;;;;5051108;28;20410;-83
2021/09/20 07:43:05;;;;;;;4.88;4.68;;;17.50;67.60;;;;;;5048623;28;20045;-83
2021/09/20 07:45:32;;;;;;;4.88;4.57;;;17.60;67.30;;;;;;5047607;28;20480;-83
2021/09/20 07:47:59;;;;;;;4.22;3.97;;;17.80;67.00;;;;;;5050412;28;20025;-83
2021/09/20 07:50:25;;;;;;;4.97;4.53;;;17.90;66.80;;;;;;5051424;28;20025;-83
2021/09/20 07:52:51;;;;;;;3.92;3.72;;;18.10;66.70;;;;;;5050937;28;20041;-83
2021/09/20 07:55:17;;;;;;;4.72;3.70;;;18.30;66.30;;;;;;5049095;28;20040;-83
2021/09/20 07:57:44;;;;;;;4.68;4.47;;;18.50;65.90;;;;;;5049109;28;20048;-83
2021/09/20 08:00:11;;;;;;;4.78;4.57;;;18.70;65.60;;;;;;5031891;28;20475;-83
2021/09/20 08:02:37;;;;;;;5.13;4.93;;;18.80;65.40;;;;;;5055383;28;20253;-83
2021/09/20 08:05:04;;;;;;;5.30;5.10;;;18.90;65.40;;;;;;5049023;28;20044;-83
2021/09/20 08:07:30;;;;;;;4.97;4.78;;;19.00;65.20;;;;;;5050278;28;20471;-83
2021/09/20 08:09:57;;;;;;;5.10;4.90;;;19.10;65.00;;;;;;5049238;28;20041;-83
2021/09/20 08:12:23;;;;;;;5.03;4.82;;;19.10;65.00;;;;;;5048782;28;20025;-83
2021/09/20 08:14:49;;;;;;;4.60;4.40;;;19.20;65.00;;;;;;5033710;28;20044;-83
2021/09/20 08:17:15;;;;;;;4.50;4.30;;;19.20;65.10;;;;;;5050394;28;20041;-83
2021/09/20 08:19:41;;;;;;;5.15;4.95;;;19.20;65.10;;;;;;5050188;28;20036;-83
2021/09/20 08:22:07;;;;;;;4.60;4.40;;;19.20;65.00;;;;;;5048427;28;20033;-83
2021/09/20 08:24:33;;;;;;;14.82;4.40;;;19.30;65.10;;;;;;5048701;28;20037;-83
2021/09/20 08:26:59;;;;;;;4.65;4.45;;;19.30;64.90;;;;;;5050936;28;20032;-83
2021/09/20 08:29:26;;;;;;;5.55;5.25;;;19.30;64.90;;;;;;5056010;28;20033;-83
2021/09/20 08:31:52;;;;;;;14.75;4.82;;;19.30;64.90;;;;;;5053792;28;20391;-83
2021/09/20 08:34:18;;;;;;;3.78;3.58;;;19.40;64.90;;;;;;5053812;28;20112;-83
2021/09/20 08:36:44;;;;;;;4.63;4.43;;;19.50;64.70;;;;;;5037651;28;20032;-83
2021/09/20 08:39:10;;;;;;;4.70;4.50;;;19.70;64.60;;;;;;5069456;28;20045;-83
2021/09/20 08:41:41;;;;;;;4.50;4.30;;;19.70;64.30;;;;;;5055469;28;20025;-83
2021/09/20 08:44:09;;;;;;;4.60;4.40;;;19.70;64.30;;;;;;5053672;28;20037;-83
2021/09/20 08:46:37;;;;;;;4.45;4.25;;;19.70;64.30;;;;;;5053742;27;20096;-83
2021/09/20 08:49:03;;;;;;;4.43;4.22;;;19.80;64.40;;;;;;5053773;28;20036;-83
2021/09/20 08:51:29;;;;;;;4.50;4.30;;;19.70;64.20;;;;;;5037222;28;20044;-83
2021/09/20 08:53:55;;;;;;;5.05;4.75;;;19.80;64.20;;;;;;5053097;28;20037;-84
2021/09/20 08:56:21;;;;;;;4.60;4.40;;;19.80;64.20;;;;;;5054791;28;20025;-83
2021/09/20 08:58:47;;;;;;;4.55;4.35;;;19.90;64.20;;;;;;5037099;28;20037;-83
2021/09/20 09:01:13;;;;;;;4.35;4.15;;;19.90;64.10;;;;;;5050320;28;20025;-84
2021/09/20 09:03:39;;;;;;;4.65;4.45;;;19.90;64.00;;;;;;5051011;28;20052;-84
2021/09/20 09:06:06;;;;;;;4.20;4.00;;;19.90;63.90;;;;;;5053915;28;20049;-83
2021/09/20 09:08:33;;;;;;;4.20;4.00;;;19.90;63.90;;;;;;5054214;28;20029;-84
2021/09/20 09:11:11;;;;;;;4.20;4.00;;;19.80;64.00;;;;;;5052854;28;20025;-84
2021/09/20 09:13:39;;;;;;;4.25;4.05;;;19.80;64.20;;;;;;5053743;28;20059;-83
2021/09/20 09:16:19;;;;;;;5.70;5.15;;;19.70;64.20;;;;;;5052714;28;20048;-83
2021/09/20 09:19:06;;;;;;;4.40;4.20;;;19.60;64.30;;;;;;5053340;28;20028;-84
2021/09/20 09:21:36;;;;;;;4.07;3.88;;;19.50;64.40;;;;;;5038585;28;20492;-83
2021/09/20 09:24:13;;;;;;;4.50;4.30;;;19.50;64.40;;;;;;5035035;28;20411;-84
2021/09/20 09:27:02;;;;;;;5.00;4.80;;;19.60;64.40;;;;;;5053354;28;20387;-85
2021/09/20 09:29:32;;;;;;;5.30;5.00;;;19.50;64.40;;;;;;5053293;28;20399;-83
2021/09/20 09:31:59;;;;;;;5.00;4.70;;;19.60;64.40;;;;;;5050627;28;20045;-83
2021/09/20 09:34:27;;;;;;;4.72;4.50;;;19.70;64.30;;;;;;5051421;28;20056;-83
2021/09/20 09:37:13;;;;;;;4.90;4.60;;;19.90;64.10;;;;;;5036306;28;20017;-84
2021/09/20 09:39:40;;;;;;;4.18;3.97;;;20.00;63.70;;;;;;5050430;28;20048;-84
2021/09/20 09:42:28;;;;;;;4.38;4.15;;;20.10;63.40;;;;;;5034816;28;20032;-82
2021/09/20 09:44:54;;;;;;;4.55;4.35;;;20.20;63.40;;;;;;5051209;28;20049;-84
2021/09/20 09:47:24;;;;;;;4.63;4.40;;;20.10;63.40;;;;;;5053727;27;20395;-84
2021/09/20 09:50:16;;;;;;;4.43;4.22;;;20.10;63.60;;;;;;5052489;28;20020;-84
2021/09/20 09:52:43;;;;;;;4.50;4.30;;;20.00;63.60;;;;;;5052500;28;20498;-84
2021/09/20 09:55:10;;;;;;;4.57;4.18;;;20.00;63.70;;;;;;5052010;28;20093;-83
2021/09/20 09:57:36;;;;;;;4.45;4.25;;;20.00;63.80;;;;;;5052435;28;20017;-84
2021/09/20 10:00:05;;;;;;;4.65;4.38;;;19.90;63.80;;;;;;5034772;28;20033;-84
2021/09/20 10:02:33;;;;;;;4.30;4.10;;;20.00;63.90;;;;;;5053488;28;20044;-83
2021/09/20 10:05:01;;;;;;;4.22;4.03;;;19.90;63.80;;;;;;5051173;28;20483;-84
2021/09/20 10:07:29;;;;;;;4.75;4.38;;;19.90;64.60;;;;;;5052164;28;20036;-83
2021/09/20 10:09:56;;;;;;;4.45;4.25;;;19.90;63.80;;;;;;5052031;28;20049;-83
2021/09/20 10:12:23;;;;;;;4.65;4.25;;;20.00;63.80;;;;;;5051036;28;20100;-83
2021/09/20 10:14:49;;;;;;;4.40;4.10;;;19.90;63.70;;;;;;5052174;28;20028;-83
2021/09/20 10:17:18;;;;;;;4.00;3.80;;;19.90;63.80;;;;;;5050751;28;20037;-83
2021/09/20 10:19:45;;;;;;;4.20;4.00;;;20.00;63.80;;;;;;5049080;28;20037;-83
2021/09/20 10:22:13;;;;;;;4.25;4.05;;;20.00;63.70;;;;;;5051088;28;20052;-84
2021/09/20 10:24:40;;;;;;;4.50;4.30;;;20.00;63.70;;;;;;5051584;28;20028;-83
2021/09/20 10:27:08;;;;;;;4.65;4.45;;;20.00;63.60;;;;;;5050685;28;20036;-84
2021/09/20 10:29:34;;;;;;;4.15;3.95;;;20.00;63.70;;;;;;5053764;28;20036;-83
2021/09/20 10:32:00;;;;;;;4.60;4.40;;;20.00;63.70;;;;;;5034902;28;20037;-84
2021/09/20 10:34:28;;;;;;;4.60;4.20;;;20.00;63.70;;;;;;5035193;28;20049;-84
2021/09/20 10:36:59;;;;;;;4.20;4.00;;;20.00;63.80;;;;;;5050464;28;20041;-84
2021/09/20 10:39:44;;;;;;;4.43;4.22;;;20.00;63.80;;;;;;5050517;28;20029;-83
2021/09/20 10:42:43;;;;;;;4.15;3.92;;;20.00;63.70;;;;;;5051598;28;20368;-84
2021/09/20 10:45:36;;;;;;;4.10;3.90;;;20.00;63.80;;;;;;5066345;28;20045;-84
2021/09/20 10:48:24;;;;;;;4.07;3.88;;;20.00;63.80;;;;;;5048210;28;20041;-83
2021/09/20 10:50:53;;;;;;;4.28;4.07;;;20.10;63.80;;;;;;5064928;28;20040;-83
2021/09/20 10:53:32;;;;;;;4.05;3.85;;;20.20;63.60;;;;;;5052381;28;20017;-84
2021/09/20 10:56:08;;;;;;;4.68;4.47;;;20.20;63.40;;;;;;5051274;28;20072;-84
2021/09/20 10:58:42;;;;;;;4.53;4.32;;;20.30;63.30;;;;;;5035083;28;20021;-84
2021/09/20 11:01:11;;;;;;;4.50;4.30;;;20.40;63.20;;;;;;5049246;28;20095;-84
2021/09/20 11:03:41;;;;;;;4.30;4.10;;;20.40;63.20;;;;;;5051087;28;20039;-83
2021/09/20 11:06:22;;;;;;;4.78;4.57;;;20.50;63.20;;;;;;5049653;28;20044;-82
2021/09/20 11:09:08;;;;;;;4.40;4.20;;;20.50;63.00;;;;;;5049159;28;20037;-84
2021/09/20 11:14:20;;;;;;;4.95;4.65;;;20.40;63.20;;;;;;5051185;28;20036;-83
2021/09/20 11:16:59;;;;;;;4.40;4.20;;;20.40;63.30;;;;;;5050422;28;20040;-84
2021/09/20 11:19:28;;;;;;;5.45;4.78;;;20.40;63.30;;;;;;5066330;28;20043;-83
2021/09/20 11:22:13;;;;;;;4.43;4.22;;;20.30;63.40;;;;;;5050762;28;20408;-83
2021/09/20 11:24:42;;;;;;;4.50;4.30;;;20.30;63.50;;;;;;5050692;28;20029;-84
2021/09/20 11:27:16;;;;;;;4.97;4.78;;;20.30;64.40;;;;;;5050757;28;20032;-84
2021/09/20 11:29:44;;;;;;;4.45;4.25;;;20.30;63.60;;;;;;5047775;28;20029;-83
2021/09/20 11:32:10;;;;;;;4.50;4.30;;;20.40;63.60;;;;;;5050345;28;20033;-83
2021/09/20 11:34:38;;;;;;;4.68;4.47;;;20.50;63.40;;;;;;5034065;28;20036;-83
2021/09/20 11:37:11;;;;;;;4.70;4.50;;;20.60;63.20;;;;;;5049142;28;20059;-83
2021/09/20 11:39:47;;;;;;;4.65;4.45;;;20.60;63.20;;;;;;5047979;28;20051;-83
2021/09/20 11:42:15;;;;;;;4.45;4.25;;;20.50;63.20;;;;;;5033679;28;20053;-83
2021/09/20 11:44:49;;;;;;;4.60;4.40;;;20.50;63.30;;;;;;5051291;28;20041;-83
2021/09/20 11:47:17;;;;;;;5.25;4.82;;;20.40;63.50;;;;;;5051862;27;20029;-84
2021/09/20 11:49:43;;;;;;;4.30;4.10;;;20.40;63.50;;;;;;5050493;28;20044;-83
2021/09/20 11:52:09;;;;;;;4.22;4.03;;;20.30;63.50;;;;;;5050927;28;20033;-84
2021/09/20 11:54:37;;;;;;;4.45;4.25;;;20.30;63.60;;;;;;5050347;28;20506;-84
2021/09/20 11:57:23;;;;;;;5.15;4.50;;;20.30;63.60;;;;;;5050900;28;20052;-84
2021/09/20 11:59:50;;;;;;;4.28;4.07;;;20.30;63.60;;;;;;5047307;28;20496;-84
2021/09/20 12:02:27;;;;;;;4.60;4.30;;;20.30;63.60;;;;;;5050685;28;20502;-84
2021/09/20 12:04:53;;;;;;;4.07;3.88;;;20.40;63.60;;;;;;5049738;28;20399;-84
2021/09/20 12:07:29;;;;;;;11.55;5.07;;;20.40;63.50;;;;;;5050203;28;20029;-83
2021/09/20 12:09:56;;;;;;;4.85;4.50;;;20.50;63.50;;;;;;5050089;28;20033;-83
2021/09/20 12:12:36;;;;;;;4.30;4.10;;;20.50;63.40;;;;;;5049080;28;20096;-83
2021/09/20 12:15:08;;;;;;;4.80;4.40;;;20.50;63.50;;;;;;5048816;28;20036;-76
2021/09/20 12:17:48;;;;;;;4.55;4.35;;;20.40;63.50;;;;;;5051940;28;20491;-83
2021/09/20 12:20:15;;;;;;;4.30;4.10;;;20.40;63.50;;;;;;5049242;28;20045;-83
2021/09/20 12:22:43;;;;;;;4.40;4.20;;;20.40;63.50;;;;;;5033871;28;20022;-83
2021/09/20 12:25:24;;;;;;;4.95;4.65;;;20.40;63.60;;;;;;5049936;28;20406;-83
2021/09/20 12:27:51;;;;;;;4.18;3.97;;;20.40;63.60;;;;;;5048877;28;20024;-84
2021/09/20 12:30:24;;;;;;;4.30;4.10;;;20.50;63.50;;;;;;5048396;28;20037;-83
2021/09/20 12:33:06;;;;;;;4.90;4.60;;;20.60;63.40;;;;;;5050030;28;20434;-84
2021/09/20 12:35:33;;;;;;;4.60;4.40;;;20.60;64.00;;;;;;5050076;28;20402;-83
2021/09/20 12:38:14;;;;;;;4.32;4.13;;;20.70;63.20;;;;;;5049814;28;20036;-84
2021/09/20 12:40:41;;;;;;;4.82;4.55;;;20.80;63.20;;;;;;5048795;28;20040;-84
2021/09/20 12:43:15;;;;;;;4.70;4.50;;;20.90;63.00;;;;;;5048455;28;20044;-84
2021/09/20 12:45:44;;;;;;;4.72;4.53;;;21.00;62.80;;;;;;5065085;28;20042;-84
2021/09/20 12:48:12;;;;;;;5.00;4.80;;;21.00;62.60;;;;;;5048455;28;20021;-84
2021/09/20 12:50:43;;;;;;;5.60;5.30;;;21.10;62.50;;;;;;5050723;28;20037;-84
2021/09/20 12:53:09;;;;;;;4.90;4.70;;;21.20;62.40;;;;;;5048995;28;20036;-85